Nearby METAR Reports

 

KSJC - San Jose, California, USA
Distance from station: NØ 14km
Opdateret: 15/09/2019 17:53
Mest skyet
Mest skyet
 Vind retning NØ
Vind: NØ 7 km/h
Temperatur: 17°C
Dugpunkt: 14°C
Fugtighed: 83%
Barometer: 1012.9 hPa
Clouds: Mest skyet
Visibility: 16 km
Cloud details: Few Clouds 305 m
Mest skyet 396 m
Mest skyet 4877 m
2019/09/15 15:53 KSJC 151553Z 04004KT 10SM FEW010 BKN013 BKN160 17/14 A2991 RMK AO2 SLP129 T01720139
KNUQ - Moffett Nas/Mtn, California, USA
Distance from station: N 14km
Opdateret: 15/09/2019 17:56

 
Barometer: 1013.2 hPa
2019/09/15 15:56 KNUQ 151556Z A2992 RMK AO2 SLP136 PWINO $
 
KPAO - Palo Alto, California, USA
Distance from station: NNV 23km
Opdateret: 15/09/2019 17:47
Mest skyet
Mest skyet
 Vind retning varies
Vind: varies 7 km/h
Temperatur: 17°C
Dugpunkt: 13°C
Fugtighed: 77%
Barometer: 1013.2 hPa
Clouds: Mest skyet
Visibility: 16 km
Cloud details: Mest skyet 457 m
2019/09/15 15:47 KPAO 151547Z VRB04KT 10SM BKN015 17/13 A2992
KRHV - San Jose/Reid, California, USA
Distance from station: ØNØ 19km
Opdateret: 15/09/2019 17:47
Overskyet
Overskyet
 Vind retning NV
Vind: NV 9 km/h
Temperatur: 16°C
Dugpunkt: 13°C
Fugtighed: 83%
Barometer: 1013.2 hPa
Clouds: Overskyet
Visibility: 16 km
Cloud details: Overskyet 457 m
2019/09/15 15:47 KRHV 151547Z 32005KT 10SM OVC015 16/13 A2992
 
KOAK - Oakland, California, USA
Distance from station: NNV 50km
Opdateret: 15/09/2019 17:53
Mest skyet
Mest skyet
 Vind retning SV
Vind: SV 17 km/h
Temperatur: 18°C
Dugpunkt: 13°C
Fugtighed: 73%
Barometer: 1012.9 hPa
Clouds: Mest skyet
Visibility: 16 km
Cloud details: Mest skyet 366 m
Mest skyet 7620 m
2019/09/15 15:53 KOAK 151553Z 22009KT 10SM BKN012 BKN250 18/13 A2991 RMK AO2 SLP128 T01780133
KSQL - San Carlos Airpo, California, USA
Distance from station: NV 34km
Opdateret: 15/09/2019 17:47
Mest skyet
Mest skyet
 Vind retning varies
Vind: varies 6 km/h
Temperatur: 17°C
Dugpunkt: 13°C
Fugtighed: 77%
Barometer: 1013.2 hPa
Clouds: Mest skyet
Visibility: 16 km
Cloud details: Mest skyet 457 m
2019/09/15 15:47 KSQL 151547Z VRB03KT 10SM BKN015 17/13 A2992
 
KSFO - San Francisco, California, USA
Distance from station: NV 49km
Opdateret: 15/09/2019 18:25
Mest skyet
Mest skyet
 Vind retning V
Vind: V 13 km/h
Temperatur: 18°C
Dugpunkt: 12°C
Fugtighed: 68%
Barometer: 1012.9 hPa
Clouds: Mest skyet
Visibility: 16 km
Cloud details: Few Clouds 244 m
Delvist skyet 457 m
Mest skyet 6096 m
2019/09/15 16:25 KSFO 151625Z 26007KT 10SM FEW008 SCT015 BKN200 18/12 A2991 RMK AO2 T01780122
KE16 - San Martin, California, USA
Distance from station: ØSØ 43km
Opdateret: 05/08/2019 19:10
NOT Current
Klart
Klart
 Vind retning ØSØ
Vind: ØSØ 19 km/h
Temperatur: 19°C
Dugpunkt: 14°C
Fugtighed: 73%
Barometer: 1016.9 hPa
Clouds: Klart
Visibility: 16 km
2019/08/05 17:10 KE16 051710Z AUTO 12010KT 10SM CLR 19/14 A3003 RMK AO2
 
KWVI - Watsonville, California, USA
Distance from station: SSØ 44km
Opdateret: 13/09/2019 23:53
NOT Current
Klart
Klart
 Vind retning V
Vind: V 17 km/h
Temperatur: 37°C
Dugpunkt: 4°C
Fugtighed: 13%
Barometer: 1013.5 hPa
Clouds: Klart
Visibility: 16 km
2019/09/13 21:53 KWVI 132153Z AUTO 27009KT 10SM CLR 37/04 A2993 RMK AO2 SLP133 T03670039
KHAF - Half Moon Bay, California, USA
Distance from station: VNV 50km
Opdateret: 15/09/2019 18:20
Overskyet
Overskyet
 
Temperatur: 15°C
Dugpunkt: 14°C
Fugtighed: 94%
Barometer: 1013.9 hPa
Clouds: Overskyet
Visibility: 11 km
Cloud details: Overskyet 366 m
2019/09/15 16:20 KHAF 151620Z AUTO 7SM OVC012 15/14 A2994 RMK AO2
 
KHWD - Hayward, California, USA
Distance from station: N 44km
Opdateret: 15/09/2019 17:54
Mest skyet
Mest skyet
 Vind retning VSV
Vind: VSV 11 km/h
Temperatur: 17°C
Dugpunkt: 13°C
Fugtighed: 77%
Barometer: 1012.9 hPa
Clouds: Mest skyet
Visibility: 16 km
Cloud details: Mest skyet 396 m
2019/09/15 15:54 KHWD 151554Z 25006KT 10SM BKN013 17/13 A2991 RMK AO2 SLP138 T01670128
KLVK - Livermore, California, USA
Distance from station: NNØ 51km
Opdateret: 15/09/2019 17:53
Few Clouds
Few Clouds
 Vind retning VNV
Vind: VNV 7 km/h
Temperatur: 17°C
Dugpunkt: 13°C
Fugtighed: 77%
Barometer: 1012.5 hPa
Clouds: Few Clouds
Visibility: 16 km
Cloud details: Few Clouds 305 m
2019/09/15 15:53 KLVK 151553Z 29004KT 10SM FEW010 17/13 A2990 RMK AO2 SLP121 T01670133